Terminal Aerodrome Forecast
Issued by NWS Newport/Morehead City, NC

Home | Current Version | Previous Version | Graphics & Text | Print | Product List | Glossary On
Versions: 1 2 3 4 5 6 7 8 9 10 11 12 13 14 15 16 17 18 19 20
082
FTUS42 KMHX 211259 AAA
TAFEWN
TAF AMD
KEWN 211259Z 2113/2212 VRB03KT 5SM -RA BR OVC005
     FM211500 31007KT P6SM VCSH BKN025
     FM211800 30007KT P6SM BKN045
     FM220300 VRB03KT P6SM BKN020
     FM220600 VRB03KT P6SM BKN007=

USA.gov is the U.S. government's official web portal to all federal, state and local government web resources and services.